KNTU/NTU METAR and TAF weather

Enter ICAO airport designator
Station Type Date Time Source
KNTU METAR 2019/10/15 20:56 UTC NOAA

KNTU 152056Z 08009KT 10SM BKN015 BKN022 20/17 A3006 RMK AO2 SLP181 T02000167 58015


Station Type Date Time Source
KNTU Decoded METAR 2019/10/15 20:56 UTC NOAA

OCEANA, NAVAL AIR STATION, VA, United States (KNTU) 36-49N 076-02W 6M
Oct 15, 2019 - 04:56 PM EDT / 2019.10.15 2056 UTC
Wind: from the E (080 degrees) at 10 MPH (9 KT):0
Visibility: 10 mile(s):0
Sky conditions: mostly cloudy
Temperature: 68.0 F (20.0 C)
Dew Point: 62.1 F (16.7 C)
Relative Humidity: 81%
Pressure (altimeter): 30.06 in. Hg (1017 hPa)
Pressure tendency: 0.04 inches (1.5 hPa) lower than three hours ago
ob: KNTU 152056Z 08009KT 10SM BKN015 BKN022 20/17 A3006 RMK AO2 SLP181 T02000167 58015
cycle: 21

Station Type Date Time Source
KNTU TAF 2019/10/15 15:09 UTC NOAA

TAF KNTU 1515/1615 06008KT 9999 SCT015 SCT250 QNH3002INS
FM160100 12008KT 9999 SCT030 BKN200 QNH2990INS
FM161200 15008KT 9999 VCSH BKN015 OVC150 QNH2980INS T22/1519Z T16/1609Z FN20008

Example: see airport list